sensor_id;sensor_type;location;lat;lon;timestamp;P1;durP1;ratioP1;P2;durP2;ratioP2
78027;SDS011;67235;45.638;11.714;2023-07-31T00:01:30;8.40;;;3.93;;
78027;SDS011;67235;45.638;11.714;2023-07-31T00:03:56;8.60;;;4.07;;
78027;SDS011;67235;45.638;11.714;2023-07-31T00:06:22;6.97;;;3.88;;
78027;SDS011;67235;45.638;11.714;2023-07-31T00:08:48;6.37;;;3.97;;
78027;SDS011;67235;45.638;11.714;2023-07-31T00:11:14;6.93;;;4.13;;
78027;SDS011;67235;45.638;11.714;2023-07-31T00:13:39;7.97;;;3.78;;
78027;SDS011;67235;45.638;11.714;2023-07-31T00:16:05;5.97;;;3.90;;
78027;SDS011;67235;45.638;11.714;2023-07-31T00:18:31;7.15;;;4.00;;
78027;SDS011;67235;45.638;11.714;2023-07-31T00:20:57;6.50;;;4.50;;
78027;SDS011;67235;45.638;11.714;2023-07-31T00:23:23;5.47;;;3.67;;
78027;SDS011;67235;45.638;11.714;2023-07-31T00:25:49;6.97;;;3.88;;
78027;SDS011;67235;45.638;11.714;2023-07-31T00:28:14;8.73;;;4.47;;
78027;SDS011;67235;45.638;11.714;2023-07-31T00:30:40;7.28;;;3.90;;
78027;SDS011;67235;45.638;11.714;2023-07-31T00:33:06;7.67;;;4.10;;
78027;SDS011;67235;45.638;11.714;2023-07-31T00:35:32;6.20;;;3.63;;
78027;SDS011;67235;45.638;11.714;2023-07-31T00:37:58;5.95;;;3.72;;
78027;SDS011;67235;45.638;11.714;2023-07-31T00:40:24;7.67;;;3.60;;
78027;SDS011;67235;45.638;11.714;2023-07-31T00:42:50;6.85;;;3.70;;
78027;SDS011;67235;45.638;11.714;2023-07-31T00:45:16;7.97;;;4.18;;
78027;SDS011;67235;45.638;11.714;2023-07-31T00:47:41;6.93;;;3.77;;
78027;SDS011;67235;45.638;11.714;2023-07-31T00:50:07;5.97;;;3.60;;
78027;SDS011;67235;45.638;11.714;2023-07-31T00:52:34;6.53;;;3.60;;
78027;SDS011;67235;45.638;11.714;2023-07-31T00:55:00;6.57;;;3.72;;
78027;SDS011;67235;45.638;11.714;2023-07-31T00:57:27;6.40;;;3.40;;
78027;SDS011;67235;45.638;11.714;2023-07-31T00:59:52;6.07;;;3.60;;
78027;SDS011;67235;45.638;11.714;2023-07-31T01:02:18;6.32;;;3.88;;
78027;SDS011;67235;45.638;11.714;2023-07-31T01:04:44;8.70;;;3.87;;
78027;SDS011;67235;45.638;11.714;2023-07-31T01:07:11;7.07;;;3.95;;
78027;SDS011;67235;45.638;11.714;2023-07-31T01:09:45;6.82;;;3.97;;
78027;SDS011;67235;45.638;11.714;2023-07-31T01:12:18;6.63;;;3.60;;
78027;SDS011;67235;45.638;11.714;2023-07-31T01:15:02;6.87;;;3.77;;
78027;SDS011;67235;45.638;11.714;2023-07-31T01:17:29;5.82;;;3.92;;
78027;SDS011;67235;45.638;11.714;2023-07-31T01:19:56;6.63;;;4.07;;
78027;SDS011;67235;45.638;11.714;2023-07-31T01:25:36;6.70;;;4.15;;
78027;SDS011;67235;45.638;11.714;2023-07-31T01:28:19;7.77;;;4.17;;
78027;SDS011;67235;45.638;11.714;2023-07-31T01:30:49;6.90;;;5.00;;
78027;SDS011;67235;45.638;11.714;2023-07-31T01:33:15;7.13;;;4.10;;
78027;SDS011;67235;45.638;11.714;2023-07-31T01:35:43;7.00;;;4.20;;
78027;SDS011;67235;45.638;11.714;2023-07-31T01:38:10;9.15;;;4.22;;
78027;SDS011;67235;45.638;11.714;2023-07-31T01:40:36;7.68;;;4.28;;
78027;SDS011;67235;45.638;11.714;2023-07-31T01:43:02;6.07;;;4.05;;
78027;SDS011;67235;45.638;11.714;2023-07-31T01:45:28;6.07;;;4.15;;
78027;SDS011;67235;45.638;11.714;2023-07-31T01:47:54;8.57;;;4.50;;
78027;SDS011;67235;45.638;11.714;2023-07-31T01:50:20;7.10;;;4.60;;
78027;SDS011;67235;45.638;11.714;2023-07-31T01:52:46;7.80;;;4.53;;
78027;SDS011;67235;45.638;11.714;2023-07-31T01:55:12;9.25;;;4.32;;
78027;SDS011;67235;45.638;11.714;2023-07-31T01:57:37;8.07;;;4.85;;
78027;SDS011;67235;45.638;11.714;2023-07-31T02:00:03;6.50;;;4.63;;
78027;SDS011;67235;45.638;11.714;2023-07-31T02:02:31;8.50;;;4.57;;
78027;SDS011;67235;45.638;11.714;2023-07-31T02:04:57;7.35;;;4.60;;
78027;SDS011;67235;45.638;11.714;2023-07-31T02:07:23;7.93;;;4.40;;
78027;SDS011;67235;45.638;11.714;2023-07-31T02:09:48;7.78;;;4.35;;
78027;SDS011;67235;45.638;11.714;2023-07-31T02:12:14;8.48;;;5.05;;
78027;SDS011;67235;45.638;11.714;2023-07-31T02:14:40;8.10;;;4.90;;
78027;SDS011;67235;45.638;11.714;2023-07-31T02:17:06;6.63;;;4.55;;
78027;SDS011;67235;45.638;11.714;2023-07-31T02:19:32;7.78;;;4.97;;
78027;SDS011;67235;45.638;11.714;2023-07-31T02:21:58;7.27;;;4.93;;
78027;SDS011;67235;45.638;11.714;2023-07-31T02:24:24;6.70;;;4.70;;
78027;SDS011;67235;45.638;11.714;2023-07-31T02:26:50;8.65;;;5.07;;
78027;SDS011;67235;45.638;11.714;2023-07-31T02:29:16;6.87;;;4.63;;
78027;SDS011;67235;45.638;11.714;2023-07-31T02:31:42;8.57;;;5.10;;
78027;SDS011;67235;45.638;11.714;2023-07-31T02:34:07;6.65;;;4.80;;
78027;SDS011;67235;45.638;11.714;2023-07-31T02:36:33;7.00;;;4.20;;
78027;SDS011;67235;45.638;11.714;2023-07-31T02:38:59;7.43;;;4.78;;
78027;SDS011;67235;45.638;11.714;2023-07-31T02:41:25;9.53;;;5.00;;
78027;SDS011;67235;45.638;11.714;2023-07-31T02:43:51;9.63;;;5.07;;
78027;SDS011;67235;45.638;11.714;2023-07-31T02:46:17;6.72;;;4.30;;
78027;SDS011;67235;45.638;11.714;2023-07-31T02:48:43;7.40;;;4.73;;
78027;SDS011;67235;45.638;11.714;2023-07-31T02:51:08;6.78;;;4.47;;
78027;SDS011;67235;45.638;11.714;2023-07-31T02:53:34;7.07;;;4.65;;
78027;SDS011;67235;45.638;11.714;2023-07-31T02:56:00;9.27;;;4.60;;
78027;SDS011;67235;45.638;11.714;2023-07-31T02:58:26;7.55;;;5.00;;
78027;SDS011;67235;45.638;11.714;2023-07-31T03:00:52;6.40;;;4.60;;
78027;SDS011;67235;45.638;11.714;2023-07-31T03:03:17;8.65;;;4.53;;
78027;SDS011;67235;45.638;11.714;2023-07-31T03:05:43;6.60;;;4.60;;
78027;SDS011;67235;45.638;11.714;2023-07-31T03:08:09;6.80;;;4.47;;
78027;SDS011;67235;45.638;11.714;2023-07-31T03:10:35;8.02;;;4.88;;
78027;SDS011;67235;45.638;11.714;2023-07-31T03:13:01;7.27;;;4.87;;
78027;SDS011;67235;45.638;11.714;2023-07-31T03:15:26;6.90;;;4.50;;
78027;SDS011;67235;45.638;11.714;2023-07-31T03:17:52;7.32;;;4.40;;
78027;SDS011;67235;45.638;11.714;2023-07-31T03:20:18;7.67;;;4.40;;
78027;SDS011;67235;45.638;11.714;2023-07-31T03:22:44;6.78;;;4.82;;
78027;SDS011;67235;45.638;11.714;2023-07-31T03:25:10;6.90;;;4.53;;
78027;SDS011;67235;45.638;11.714;2023-07-31T03:27:36;8.40;;;4.95;;
78027;SDS011;67235;45.638;11.714;2023-07-31T03:30:02;6.68;;;4.50;;
78027;SDS011;67235;45.638;11.714;2023-07-31T03:32:28;7.37;;;4.83;;
78027;SDS011;67235;45.638;11.714;2023-07-31T03:34:54;9.18;;;5.10;;
78027;SDS011;67235;45.638;11.714;2023-07-31T03:37:20;7.10;;;4.55;;
78027;SDS011;67235;45.638;11.714;2023-07-31T03:39:46;6.60;;;4.60;;
78027;SDS011;67235;45.638;11.714;2023-07-31T03:42:12;9.00;;;4.45;;
78027;SDS011;67235;45.638;11.714;2023-07-31T03:44:37;6.60;;;4.67;;
78027;SDS011;67235;45.638;11.714;2023-07-31T03:47:03;6.43;;;4.15;;
78027;SDS011;67235;45.638;11.714;2023-07-31T03:49:30;7.15;;;5.10;;
78027;SDS011;67235;45.638;11.714;2023-07-31T03:51:56;8.90;;;5.00;;
78027;SDS011;67235;45.638;11.714;2023-07-31T03:54:22;7.40;;;4.70;;
78027;SDS011;67235;45.638;11.714;2023-07-31T03:56:47;9.15;;;4.72;;
78027;SDS011;67235;45.638;11.714;2023-07-31T03:59:13;7.10;;;4.67;;
78027;SDS011;67235;45.638;11.714;2023-07-31T04:01:39;7.30;;;4.65;;
78027;SDS011;67235;45.638;11.714;2023-07-31T04:04:05;7.75;;;5.15;;
78027;SDS011;67235;45.638;11.714;2023-07-31T04:06:31;6.70;;;4.77;;
78027;SDS011;67235;45.638;11.714;2023-07-31T04:08:57;6.30;;;4.30;;
78027;SDS011;67235;45.638;11.714;2023-07-31T04:11:22;7.38;;;4.90;;
78027;SDS011;67235;45.638;11.714;2023-07-31T04:13:48;6.57;;;4.40;;
78027;SDS011;67235;45.638;11.714;2023-07-31T04:16:14;7.13;;;4.75;;
78027;SDS011;67235;45.638;11.714;2023-07-31T04:18:40;6.93;;;4.50;;
78027;SDS011;67235;45.638;11.714;2023-07-31T04:21:06;6.28;;;4.43;;
78027;SDS011;67235;45.638;11.714;2023-07-31T04:23:32;6.65;;;4.43;;
78027;SDS011;67235;45.638;11.714;2023-07-31T04:25:58;7.27;;;4.43;;
78027;SDS011;67235;45.638;11.714;2023-07-31T04:28:23;6.75;;;4.07;;
78027;SDS011;67235;45.638;11.714;2023-07-31T04:30:51;6.50;;;4.13;;
78027;SDS011;67235;45.638;11.714;2023-07-31T04:33:17;7.13;;;3.80;;
78027;SDS011;67235;45.638;11.714;2023-07-31T04:35:48;5.70;;;3.80;;
78027;SDS011;67235;45.638;11.714;2023-07-31T04:38:18;6.10;;;3.40;;
78027;SDS011;67235;45.638;11.714;2023-07-31T04:40:44;6.03;;;3.85;;
78027;SDS011;67235;45.638;11.714;2023-07-31T04:43:10;6.32;;;3.42;;
78027;SDS011;67235;45.638;11.714;2023-07-31T04:45:36;7.23;;;3.40;;
78027;SDS011;67235;45.638;11.714;2023-07-31T04:48:02;6.30;;;3.03;;
78027;SDS011;67235;45.638;11.714;2023-07-31T04:50:28;6.50;;;3.20;;
78027;SDS011;67235;45.638;11.714;2023-07-31T04:52:56;5.50;;;2.90;;
78027;SDS011;67235;45.638;11.714;2023-07-31T04:55:22;6.75;;;3.10;;
78027;SDS011;67235;45.638;11.714;2023-07-31T04:57:48;5.88;;;3.10;;
78027;SDS011;67235;45.638;11.714;2023-07-31T05:00:14;6.33;;;2.80;;
78027;SDS011;67235;45.638;11.714;2023-07-31T05:02:44;5.60;;;2.80;;
78027;SDS011;67235;45.638;11.714;2023-07-31T05:05:11;4.70;;;2.50;;
78027;SDS011;67235;45.638;11.714;2023-07-31T05:07:37;5.35;;;2.97;;
78027;SDS011;67235;45.638;11.714;2023-07-31T05:10:03;6.03;;;2.43;;
78027;SDS011;67235;45.638;11.714;2023-07-31T05:12:29;5.40;;;2.50;;
78027;SDS011;67235;45.638;11.714;2023-07-31T05:14:55;4.47;;;2.47;;
78027;SDS011;67235;45.638;11.714;2023-07-31T05:17:21;5.13;;;2.80;;
78027;SDS011;67235;45.638;11.714;2023-07-31T05:19:48;5.25;;;2.60;;
78027;SDS011;67235;45.638;11.714;2023-07-31T05:22:14;4.75;;;2.50;;
78027;SDS011;67235;45.638;11.714;2023-07-31T05:24:42;4.97;;;2.70;;
78027;SDS011;67235;45.638;11.714;2023-07-31T05:27:13;4.17;;;2.17;;
78027;SDS011;67235;45.638;11.714;2023-07-31T05:29:43;4.38;;;2.53;;
78027;SDS011;67235;45.638;11.714;2023-07-31T05:32:09;7.35;;;2.35;;
78027;SDS011;67235;45.638;11.714;2023-07-31T05:34:35;4.82;;;2.60;;
78027;SDS011;67235;45.638;11.714;2023-07-31T05:37:01;5.73;;;2.50;;
78027;SDS011;67235;45.638;11.714;2023-07-31T05:39:27;4.07;;;2.20;;
78027;SDS011;67235;45.638;11.714;2023-07-31T05:41:53;6.40;;;2.17;;
78027;SDS011;67235;45.638;11.714;2023-07-31T05:44:19;5.63;;;2.33;;
78027;SDS011;67235;45.638;11.714;2023-07-31T05:46:45;4.45;;;1.95;;
78027;SDS011;67235;45.638;11.714;2023-07-31T05:49:11;4.37;;;2.20;;
78027;SDS011;67235;45.638;11.714;2023-07-31T05:51:41;4.32;;;1.80;;
78027;SDS011;67235;45.638;11.714;2023-07-31T05:54:09;4.38;;;1.90;;
78027;SDS011;67235;45.638;11.714;2023-07-31T05:56:38;5.15;;;2.13;;
78027;SDS011;67235;45.638;11.714;2023-07-31T05:59:11;6.00;;;2.00;;
78027;SDS011;67235;45.638;11.714;2023-07-31T06:01:58;4.60;;;1.80;;
78027;SDS011;67235;45.638;11.714;2023-07-31T06:04:28;4.22;;;2.28;;
78027;SDS011;67235;45.638;11.714;2023-07-31T06:06:55;4.60;;;1.70;;
78027;SDS011;67235;45.638;11.714;2023-07-31T06:09:27;4.65;;;2.10;;
78027;SDS011;67235;45.638;11.714;2023-07-31T06:11:58;4.18;;;1.80;;
78027;SDS011;67235;45.638;11.714;2023-07-31T06:14:41;4.37;;;1.90;;
78027;SDS011;67235;45.638;11.714;2023-07-31T06:17:10;3.70;;;1.95;;
78027;SDS011;67235;45.638;11.714;2023-07-31T06:19:43;4.65;;;1.90;;
78027;SDS011;67235;45.638;11.714;2023-07-31T06:22:17;4.07;;;1.90;;
78027;SDS011;67235;45.638;11.714;2023-07-31T06:24:48;5.22;;;1.88;;
78027;SDS011;67235;45.638;11.714;2023-07-31T06:27:15;3.50;;;1.73;;
78027;SDS011;67235;45.638;11.714;2023-07-31T06:29:43;6.20;;;2.00;;
78027;SDS011;67235;45.638;11.714;2023-07-31T06:32:14;5.70;;;2.00;;
78027;SDS011;67235;45.638;11.714;2023-07-31T06:34:46;5.13;;;2.00;;
78027;SDS011;67235;45.638;11.714;2023-07-31T06:37:23;3.95;;;1.90;;
78027;SDS011;67235;45.638;11.714;2023-07-31T06:39:59;3.63;;;1.80;;
78027;SDS011;67235;45.638;11.714;2023-07-31T06:42:39;5.80;;;2.30;;
78027;SDS011;67235;45.638;11.714;2023-07-31T06:45:12;4.80;;;1.90;;
78027;SDS011;67235;45.638;11.714;2023-07-31T06:47:45;3.78;;;2.03;;
78027;SDS011;67235;45.638;11.714;2023-07-31T06:50:21;4.28;;;1.90;;
78027;SDS011;67235;45.638;11.714;2023-07-31T06:53:09;4.73;;;1.90;;
78027;SDS011;67235;45.638;11.714;2023-07-31T06:55:42;4.47;;;2.30;;
78027;SDS011;67235;45.638;11.714;2023-07-31T06:58:09;5.88;;;1.98;;
78027;SDS011;67235;45.638;11.714;2023-07-31T07:00:40;4.68;;;1.85;;
78027;SDS011;67235;45.638;11.714;2023-07-31T07:03:26;4.35;;;2.10;;
78027;SDS011;67235;45.638;11.714;2023-07-31T07:06:02;4.20;;;2.10;;
78027;SDS011;67235;45.638;11.714;2023-07-31T07:08:37;5.10;;;1.90;;
78027;SDS011;67235;45.638;11.714;2023-07-31T07:11:07;4.05;;;2.20;;
78027;SDS011;67235;45.638;11.714;2023-07-31T07:13:37;5.15;;;1.70;;
78027;SDS011;67235;45.638;11.714;2023-07-31T07:16:06;5.65;;;1.70;;
78027;SDS011;67235;45.638;11.714;2023-07-31T07:18:37;6.07;;;2.10;;
78027;SDS011;67235;45.638;11.714;2023-07-31T07:21:07;3.65;;;1.70;;
78027;SDS011;67235;45.638;11.714;2023-07-31T07:23:47;4.40;;;1.77;;
78027;SDS011;67235;45.638;11.714;2023-07-31T07:26:17;3.35;;;1.30;;
78027;SDS011;67235;45.638;11.714;2023-07-31T07:28:45;3.70;;;1.60;;
78027;SDS011;67235;45.638;11.714;2023-07-31T07:31:14;4.30;;;1.37;;
78027;SDS011;67235;45.638;11.714;2023-07-31T07:33:42;4.60;;;2.25;;
78027;SDS011;67235;45.638;11.714;2023-07-31T07:36:08;4.30;;;1.40;;
78027;SDS011;67235;45.638;11.714;2023-07-31T07:38:34;3.20;;;1.25;;
78027;SDS011;67235;45.638;11.714;2023-07-31T07:41:01;3.33;;;1.23;;
78027;SDS011;67235;45.638;11.714;2023-07-31T07:43:27;3.93;;;1.40;;
78027;SDS011;67235;45.638;11.714;2023-07-31T07:45:53;5.57;;;1.52;;
78027;SDS011;67235;45.638;11.714;2023-07-31T07:48:19;3.97;;;1.55;;
78027;SDS011;67235;45.638;11.714;2023-07-31T07:50:45;3.40;;;1.23;;
78027;SDS011;67235;45.638;11.714;2023-07-31T07:53:11;3.70;;;1.47;;
78027;SDS011;67235;45.638;11.714;2023-07-31T07:55:37;6.13;;;1.20;;
78027;SDS011;67235;45.638;11.714;2023-07-31T07:58:03;3.30;;;1.20;;
78027;SDS011;67235;45.638;11.714;2023-07-31T08:00:31;3.80;;;1.40;;
78027;SDS011;67235;45.638;11.714;2023-07-31T08:03:05;3.90;;;1.40;;
78027;SDS011;67235;45.638;11.714;2023-07-31T08:05:31;3.67;;;1.40;;
78027;SDS011;67235;45.638;11.714;2023-07-31T08:07:59;3.53;;;1.30;;
78027;SDS011;67235;45.638;11.714;2023-07-31T08:10:26;3.33;;;1.35;;
78027;SDS011;67235;45.638;11.714;2023-07-31T08:12:53;3.50;;;1.52;;
78027;SDS011;67235;45.638;11.714;2023-07-31T08:15:18;3.40;;;1.30;;
78027;SDS011;67235;45.638;11.714;2023-07-31T08:17:44;4.05;;;1.48;;
78027;SDS011;67235;45.638;11.714;2023-07-31T08:20:10;3.90;;;1.43;;
78027;SDS011;67235;45.638;11.714;2023-07-31T08:22:36;3.72;;;1.50;;
78027;SDS011;67235;45.638;11.714;2023-07-31T08:25:02;4.10;;;1.50;;
78027;SDS011;67235;45.638;11.714;2023-07-31T08:27:28;4.63;;;1.50;;
78027;SDS011;67235;45.638;11.714;2023-07-31T08:29:54;3.60;;;1.60;;
78027;SDS011;67235;45.638;11.714;2023-07-31T08:32:20;4.68;;;1.40;;
78027;SDS011;67235;45.638;11.714;2023-07-31T08:34:46;3.40;;;1.20;;
78027;SDS011;67235;45.638;11.714;2023-07-31T08:37:12;3.90;;;1.50;;
78027;SDS011;67235;45.638;11.714;2023-07-31T08:39:38;4.15;;;1.40;;
78027;SDS011;67235;45.638;11.714;2023-07-31T08:42:09;5.25;;;1.50;;
78027;SDS011;67235;45.638;11.714;2023-07-31T08:44:35;4.73;;;1.70;;
78027;SDS011;67235;45.638;11.714;2023-07-31T08:47:02;3.50;;;1.52;;
78027;SDS011;67235;45.638;11.714;2023-07-31T08:49:29;4.32;;;1.48;;
78027;SDS011;67235;45.638;11.714;2023-07-31T08:51:56;4.00;;;1.42;;
78027;SDS011;67235;45.638;11.714;2023-07-31T08:54:23;4.25;;;1.58;;
78027;SDS011;67235;45.638;11.714;2023-07-31T08:56:49;4.23;;;1.30;;
78027;SDS011;67235;45.638;11.714;2023-07-31T08:59:15;3.22;;;1.23;;
78027;SDS011;67235;45.638;11.714;2023-07-31T09:01:47;3.38;;;1.27;;
78027;SDS011;67235;45.638;11.714;2023-07-31T09:04:16;3.60;;;1.10;;
78027;SDS011;67235;45.638;11.714;2023-07-31T09:06:43;3.53;;;1.23;;
78027;SDS011;67235;45.638;11.714;2023-07-31T09:09:10;3.60;;;1.20;;
78027;SDS011;67235;45.638;11.714;2023-07-31T09:11:37;3.50;;;1.25;;
78027;SDS011;67235;45.638;11.714;2023-07-31T09:14:03;6.22;;;1.67;;
78027;SDS011;67235;45.638;11.714;2023-07-31T09:16:33;3.25;;;1.13;;
78027;SDS011;67235;45.638;11.714;2023-07-31T09:18:59;3.50;;;1.20;;
78027;SDS011;67235;45.638;11.714;2023-07-31T09:21:28;3.50;;;1.40;;
78027;SDS011;67235;45.638;11.714;2023-07-31T09:23:54;4.15;;;1.20;;
78027;SDS011;67235;45.638;11.714;2023-07-31T09:26:30;3.42;;;1.20;;
78027;SDS011;67235;45.638;11.714;2023-07-31T09:29:01;5.07;;;1.25;;
78027;SDS011;67235;45.638;11.714;2023-07-31T09:31:40;3.43;;;1.30;;
78027;SDS011;67235;45.638;11.714;2023-07-31T09:34:07;3.63;;;1.30;;
78027;SDS011;67235;45.638;11.714;2023-07-31T09:36:39;4.05;;;1.20;;
78027;SDS011;67235;45.638;11.714;2023-07-31T09:39:10;3.80;;;1.30;;
78027;SDS011;67235;45.638;11.714;2023-07-31T09:41:38;4.80;;;1.33;;
78027;SDS011;67235;45.638;11.714;2023-07-31T09:44:04;3.87;;;1.03;;
78027;SDS011;67235;45.638;11.714;2023-07-31T09:46:30;4.22;;;1.30;;
78027;SDS011;67235;45.638;11.714;2023-07-31T09:49:03;4.70;;;1.10;;
78027;SDS011;67235;45.638;11.714;2023-07-31T09:51:38;4.97;;;1.30;;
78027;SDS011;67235;45.638;11.714;2023-07-31T09:54:15;4.97;;;1.50;;
78027;SDS011;67235;45.638;11.714;2023-07-31T09:56:42;4.03;;;1.30;;
78027;SDS011;67235;45.638;11.714;2023-07-31T09:59:11;3.95;;;1.33;;
78027;SDS011;67235;45.638;11.714;2023-07-31T10:01:40;4.35;;;1.42;;
78027;SDS011;67235;45.638;11.714;2023-07-31T10:04:10;4.65;;;1.20;;
78027;SDS011;67235;45.638;11.714;2023-07-31T10:06:36;4.30;;;1.40;;
78027;SDS011;67235;45.638;11.714;2023-07-31T10:09:07;4.40;;;1.30;;
78027;SDS011;67235;45.638;11.714;2023-07-31T10:11:43;6.38;;;1.40;;
78027;SDS011;67235;45.638;11.714;2023-07-31T10:14:18;3.88;;;1.30;;
78027;SDS011;67235;45.638;11.714;2023-07-31T10:16:45;4.43;;;1.33;;
78027;SDS011;67235;45.638;11.714;2023-07-31T10:19:11;4.20;;;1.23;;
78027;SDS011;67235;45.638;11.714;2023-07-31T10:21:37;4.55;;;1.60;;
78027;SDS011;67235;45.638;11.714;2023-07-31T10:24:04;4.25;;;1.30;;
78027;SDS011;67235;45.638;11.714;2023-07-31T10:26:33;4.82;;;1.17;;
78027;SDS011;67235;45.638;11.714;2023-07-31T10:29:02;3.50;;;1.25;;
78027;SDS011;67235;45.638;11.714;2023-07-31T10:31:30;4.47;;;1.20;;
78027;SDS011;67235;45.638;11.714;2023-07-31T10:33:57;4.25;;;1.20;;
78027;SDS011;67235;45.638;11.714;2023-07-31T10:36:24;5.45;;;1.35;;
78027;SDS011;67235;45.638;11.714;2023-07-31T10:38:51;3.00;;;1.00;;
78027;SDS011;67235;45.638;11.714;2023-07-31T10:41:17;4.03;;;1.08;;
78027;SDS011;67235;45.638;11.714;2023-07-31T10:43:45;3.57;;;1.30;;
78027;SDS011;67235;45.638;11.714;2023-07-31T10:46:12;4.28;;;1.50;;
78027;SDS011;67235;45.638;11.714;2023-07-31T10:48:39;3.40;;;1.20;;
78027;SDS011;67235;45.638;11.714;2023-07-31T10:51:10;2.95;;;1.10;;
78027;SDS011;67235;45.638;11.714;2023-07-31T10:53:41;3.58;;;1.38;;
78027;SDS011;67235;45.638;11.714;2023-07-31T10:56:07;3.37;;;1.30;;
78027;SDS011;67235;45.638;11.714;2023-07-31T10:58:37;3.92;;;1.20;;
78027;SDS011;67235;45.638;11.714;2023-07-31T11:01:04;4.28;;;1.20;;
78027;SDS011;67235;45.638;11.714;2023-07-31T11:03:49;3.85;;;1.30;;
78027;SDS011;67235;45.638;11.714;2023-07-31T11:06:18;3.30;;;1.43;;
78027;SDS011;67235;45.638;11.714;2023-07-31T11:08:45;3.70;;;1.30;;
78027;SDS011;67235;45.638;11.714;2023-07-31T11:11:13;3.45;;;1.10;;
78027;SDS011;67235;45.638;11.714;2023-07-31T11:13:47;3.35;;;1.17;;
78027;SDS011;67235;45.638;11.714;2023-07-31T11:16:18;3.45;;;1.13;;
78027;SDS011;67235;45.638;11.714;2023-07-31T11:18:46;3.50;;;1.10;;
78027;SDS011;67235;45.638;11.714;2023-07-31T11:21:22;3.67;;;1.20;;
78027;SDS011;67235;45.638;11.714;2023-07-31T11:23:54;3.33;;;1.25;;
78027;SDS011;67235;45.638;11.714;2023-07-31T11:26:22;4.45;;;1.00;;
78027;SDS011;67235;45.638;11.714;2023-07-31T11:28:49;3.60;;;1.10;;
78027;SDS011;67235;45.638;11.714;2023-07-31T11:31:16;3.33;;;1.20;;
78027;SDS011;67235;45.638;11.714;2023-07-31T11:33:42;3.85;;;1.20;;
78027;SDS011;67235;45.638;11.714;2023-07-31T11:36:15;3.42;;;1.17;;
78027;SDS011;67235;45.638;11.714;2023-07-31T11:38:45;3.15;;;1.00;;
78027;SDS011;67235;45.638;11.714;2023-07-31T11:41:13;3.55;;;1.10;;
78027;SDS011;67235;45.638;11.714;2023-07-31T11:43:40;3.33;;;1.00;;
78027;SDS011;67235;45.638;11.714;2023-07-31T11:46:05;4.20;;;1.40;;
78027;SDS011;67235;45.638;11.714;2023-07-31T11:48:33;3.67;;;1.10;;
78027;SDS011;67235;45.638;11.714;2023-07-31T11:51:01;3.58;;;1.20;;
78027;SDS011;67235;45.638;11.714;2023-07-31T11:53:36;3.70;;;1.33;;
78027;SDS011;67235;45.638;11.714;2023-07-31T11:56:09;3.80;;;1.20;;
78027;SDS011;67235;45.638;11.714;2023-07-31T11:58:38;3.13;;;1.10;;
78027;SDS011;67235;45.638;11.714;2023-07-31T12:01:05;3.22;;;1.00;;
78027;SDS011;67235;45.638;11.714;2023-07-31T12:03:33;3.75;;;1.35;;
78027;SDS011;67235;45.638;11.714;2023-07-31T12:06:05;4.03;;;1.37;;
78027;SDS011;67235;45.638;11.714;2023-07-31T12:08:31;3.63;;;1.10;;
78027;SDS011;67235;45.638;11.714;2023-07-31T12:11:01;3.45;;;1.25;;
78027;SDS011;67235;45.638;11.714;2023-07-31T12:13:36;3.40;;;1.30;;
78027;SDS011;67235;45.638;11.714;2023-07-31T12:16:04;4.10;;;1.20;;
78027;SDS011;67235;45.638;11.714;2023-07-31T12:18:34;3.87;;;1.27;;
78027;SDS011;67235;45.638;11.714;2023-07-31T12:21:02;3.25;;;1.02;;
78027;SDS011;67235;45.638;11.714;2023-07-31T12:23:35;3.50;;;1.23;;
78027;SDS011;67235;45.638;11.714;2023-07-31T12:28:40;3.50;;;1.10;;
78027;SDS011;67235;45.638;11.714;2023-07-31T12:31:08;4.73;;;1.40;;
78027;SDS011;67235;45.638;11.714;2023-07-31T12:33:36;3.30;;;1.02;;
78027;SDS011;67235;45.638;11.714;2023-07-31T12:36:04;3.67;;;1.20;;
78027;SDS011;67235;45.638;11.714;2023-07-31T12:38:36;3.53;;;1.30;;
78027;SDS011;67235;45.638;11.714;2023-07-31T12:41:02;3.60;;;1.10;;
78027;SDS011;67235;45.638;11.714;2023-07-31T12:43:28;4.03;;;1.20;;
78027;SDS011;67235;45.638;11.714;2023-07-31T12:45:54;3.22;;;1.00;;
78027;SDS011;67235;45.638;11.714;2023-07-31T12:48:22;3.40;;;0.90;;
78027;SDS011;67235;45.638;11.714;2023-07-31T12:50:53;3.80;;;1.20;;
78027;SDS011;67235;45.638;11.714;2023-07-31T12:53:21;3.10;;;1.00;;
78027;SDS011;67235;45.638;11.714;2023-07-31T12:55:50;3.40;;;1.13;;
78027;SDS011;67235;45.638;11.714;2023-07-31T12:58:16;3.80;;;1.10;;
78027;SDS011;67235;45.638;11.714;2023-07-31T13:00:44;3.65;;;1.25;;
78027;SDS011;67235;45.638;11.714;2023-07-31T13:03:11;3.28;;;1.05;;
78027;SDS011;67235;45.638;11.714;2023-07-31T13:05:40;3.30;;;1.00;;
78027;SDS011;67235;45.638;11.714;2023-07-31T13:08:10;5.32;;;1.40;;
78027;SDS011;67235;45.638;11.714;2023-07-31T13:10:37;4.03;;;1.13;;
78027;SDS011;67235;45.638;11.714;2023-07-31T13:13:04;3.30;;;1.10;;
78027;SDS011;67235;45.638;11.714;2023-07-31T13:15:31;3.88;;;1.40;;
78027;SDS011;67235;45.638;11.714;2023-07-31T13:17:57;4.18;;;1.20;;
78027;SDS011;67235;45.638;11.714;2023-07-31T13:20:24;4.30;;;1.20;;
78027;SDS011;67235;45.638;11.714;2023-07-31T13:22:50;3.37;;;1.30;;
78027;SDS011;67235;45.638;11.714;2023-07-31T13:25:16;4.07;;;1.30;;
78027;SDS011;67235;45.638;11.714;2023-07-31T13:27:42;4.97;;;1.40;;
78027;SDS011;67235;45.638;11.714;2023-07-31T13:30:08;3.50;;;1.40;;
78027;SDS011;67235;45.638;11.714;2023-07-31T13:32:34;3.83;;;1.30;;
78027;SDS011;67235;45.638;11.714;2023-07-31T13:35:04;5.15;;;1.60;;
78027;SDS011;67235;45.638;11.714;2023-07-31T13:37:31;4.95;;;1.30;;
78027;SDS011;67235;45.638;11.714;2023-07-31T13:39:57;4.23;;;1.20;;
78027;SDS011;67235;45.638;11.714;2023-07-31T13:42:23;4.65;;;1.40;;
78027;SDS011;67235;45.638;11.714;2023-07-31T13:44:48;4.03;;;1.33;;
78027;SDS011;67235;45.638;11.714;2023-07-31T13:47:14;8.20;;;1.50;;
78027;SDS011;67235;45.638;11.714;2023-07-31T13:49:40;3.63;;;1.30;;
78027;SDS011;67235;45.638;11.714;2023-07-31T13:52:08;3.50;;;1.30;;
78027;SDS011;67235;45.638;11.714;2023-07-31T13:54:34;3.47;;;1.57;;
78027;SDS011;67235;45.638;11.714;2023-07-31T13:57:00;5.88;;;1.40;;
78027;SDS011;67235;45.638;11.714;2023-07-31T13:59:28;3.50;;;1.40;;
78027;SDS011;67235;45.638;11.714;2023-07-31T14:01:53;3.55;;;1.33;;
78027;SDS011;67235;45.638;11.714;2023-07-31T14:04:19;5.07;;;1.20;;
78027;SDS011;67235;45.638;11.714;2023-07-31T14:06:45;3.88;;;1.42;;
78027;SDS011;67235;45.638;11.714;2023-07-31T14:09:14;3.63;;;1.60;;
78027;SDS011;67235;45.638;11.714;2023-07-31T14:11:43;3.22;;;1.20;;
78027;SDS011;67235;45.638;11.714;2023-07-31T14:14:10;3.70;;;1.40;;
78027;SDS011;67235;45.638;11.714;2023-07-31T14:16:37;4.13;;;1.33;;
78027;SDS011;67235;45.638;11.714;2023-07-31T14:19:03;3.40;;;1.20;;
78027;SDS011;67235;45.638;11.714;2023-07-31T14:21:30;3.65;;;1.30;;
78027;SDS011;67235;45.638;11.714;2023-07-31T14:23:57;4.03;;;1.30;;
78027;SDS011;67235;45.638;11.714;2023-07-31T14:26:24;4.32;;;1.30;;
78027;SDS011;67235;45.638;11.714;2023-07-31T14:28:51;3.60;;;1.40;;
78027;SDS011;67235;45.638;11.714;2023-07-31T14:31:17;3.53;;;1.33;;
78027;SDS011;67235;45.638;11.714;2023-07-31T14:33:44;3.80;;;1.27;;
78027;SDS011;67235;45.638;11.714;2023-07-31T14:36:11;3.40;;;1.20;;
78027;SDS011;67235;45.638;11.714;2023-07-31T14:38:37;3.83;;;1.40;;
78027;SDS011;67235;45.638;11.714;2023-07-31T14:41:03;4.00;;;1.45;;
78027;SDS011;67235;45.638;11.714;2023-07-31T14:43:29;3.57;;;1.40;;